Time;durP1;ratioP1;P1;durP2;ratioP2;P2;SDS_P1;SDS_P2;PMS_P1;PMS_P2;Temp;Humidity;BMP_temperature;BMP_pressure;BME280_temperature;BME280_humidity;BME280_pressure;Samples;Min_cycle;Max_cycle;Signal;HPM_P1;HPM_P2
2024/04/16 00:00:40;;;;;;;1.00;0.35;;;4.80;99.90;;;;;;5409102;26;20000;-48
2024/04/16 00:03:08;;;;;;;2.15;0.57;;;4.80;99.90;;;;;;5412534;26;20000;-48
2024/04/16 00:05:34;;;;;;;2.05;0.45;;;4.80;99.90;;;;;;5402428;26;20450;-49
2024/04/16 00:08:00;;;;;;;0.38;0.28;;;4.70;99.90;;;;;;5405961;26;20036;-48
2024/04/16 00:10:26;;;;;;;0.25;0.22;;;4.70;99.90;;;;;;5411872;26;20003;-49
2024/04/16 00:12:51;;;;;;;4.78;0.60;;;4.60;99.90;;;;;;5412089;26;20156;-49
2024/04/16 00:15:17;;;;;;;8.55;0.60;;;4.50;99.90;;;;;;5403625;26;20032;-52
2024/04/16 00:17:44;;;;;;;0.95;0.35;;;4.50;99.90;;;;;;5407327;26;19995;-49
2024/04/16 00:20:10;;;;;;;3.05;0.75;;;4.40;99.90;;;;;;5406241;26;20011;-48
2024/04/16 00:22:35;;;;;;;1.08;0.40;;;4.40;99.90;;;;;;5401750;26;20019;-50
2024/04/16 00:25:02;;;;;;;2.53;0.70;;;4.30;99.90;;;;;;5404559;26;19991;-49
2024/04/16 00:27:27;;;;;;;3.58;0.65;;;4.20;99.90;;;;;;5408071;26;20004;-49
2024/04/16 00:29:54;;;;;;;2.85;0.43;;;4.30;99.90;;;;;;5406539;26;20000;-48
2024/04/16 00:32:20;;;;;;;1.27;0.32;;;4.30;99.90;;;;;;5408307;26;20036;-54
2024/04/16 00:34:45;;;;;;;1.50;0.68;;;4.30;99.90;;;;;;5407792;26;19996;-55
2024/04/16 00:37:11;;;;;;;3.45;0.40;;;4.30;99.90;;;;;;5404979;26;20073;-52
2024/04/16 00:39:37;;;;;;;0.45;0.40;;;4.40;99.90;;;;;;5400328;26;20008;-48
2024/04/16 00:42:03;;;;;;;5.90;0.68;;;4.40;99.90;;;;;;5403989;26;20003;-50
2024/04/16 00:44:29;;;;;;;5.03;0.80;;;4.40;99.90;;;;;;5407298;26;20019;-48
2024/04/16 00:46:55;;;;;;;1.95;0.55;;;4.50;99.90;;;;;;5404764;26;20000;-51
2024/04/16 00:49:21;;;;;;;0.85;0.40;;;4.60;99.90;;;;;;5407787;26;20007;-49
2024/04/16 00:51:47;;;;;;;3.45;0.60;;;4.60;99.90;;;;;;5407818;26;20014;-49
2024/04/16 00:54:13;;;;;;;2.95;0.60;;;4.70;99.90;;;;;;5413051;26;19995;-50
2024/04/16 00:56:39;;;;;;;2.58;0.60;;;4.70;99.90;;;;;;5412122;26;20014;-50
2024/04/16 00:59:06;;;;;;;1.73;0.30;;;4.70;99.90;;;;;;5414805;26;20006;-48
2024/04/16 01:01:32;;;;;;;1.95;0.70;;;4.70;99.90;;;;;;5410624;26;20097;-49
2024/04/16 01:03:58;;;;;;;2.97;0.57;;;4.80;99.90;;;;;;5401807;26;20478;-48
2024/04/16 01:06:24;;;;;;;4.78;0.73;;;4.80;99.90;;;;;;5403286;26;19999;-52
2024/04/16 01:08:49;;;;;;;2.97;0.50;;;4.80;99.90;;;;;;5408767;26;20004;-50
2024/04/16 01:11:28;;;;;;;2.97;0.70;;;4.90;99.90;;;;;;5401176;26;20433;-51
2024/04/16 01:13:57;;;;;;;3.50;0.50;;;4.90;99.90;;;;;;5406789;26;20000;-49
2024/04/16 01:16:23;;;;;;;1.60;0.45;;;4.90;99.90;;;;;;5407864;26;19992;-48
2024/04/16 01:18:48;;;;;;;4.20;0.60;;;4.90;99.90;;;;;;5398423;26;20011;-49
2024/04/16 01:21:14;;;;;;;13.38;0.80;;;4.90;99.90;;;;;;5410519;26;20461;-48
2024/04/16 01:23:40;;;;;;;3.42;0.88;;;4.90;99.90;;;;;;5406409;26;20441;-54
2024/04/16 01:26:06;;;;;;;6.40;0.63;;;5.00;99.90;;;;;;5407211;26;20004;-50
2024/04/16 01:28:32;;;;;;;3.17;1.55;;;5.00;99.90;;;;;;5403598;26;20334;-49
2024/04/16 01:30:57;;;;;;;2.03;0.90;;;5.00;99.90;;;;;;5402654;26;20007;-48
2024/04/16 01:33:23;;;;;;;7.50;1.05;;;5.00;99.90;;;;;;5404721;26;20511;-49
2024/04/16 01:35:48;;;;;;;1.15;0.55;;;5.00;99.90;;;;;;5405523;26;20003;-49
2024/04/16 01:38:14;;;;;;;5.55;1.20;;;5.00;99.90;;;;;;5408742;26;19996;-51
2024/04/16 01:40:39;;;;;;;2.00;0.85;;;5.10;99.90;;;;;;5407092;26;20000;-51
2024/04/16 01:43:05;;;;;;;3.72;1.42;;;5.00;99.90;;;;;;5409717;26;19996;-54
2024/04/16 01:45:30;;;;;;;8.65;1.17;;;5.10;99.90;;;;;;5414599;26;20457;-49
2024/04/16 01:47:56;;;;;;;5.97;0.93;;;5.10;99.90;;;;;;5404106;26;20161;-48
2024/04/16 01:50:22;;;;;;;3.47;1.00;;;5.10;99.90;;;;;;5412861;26;20601;-48
2024/04/16 01:52:47;;;;;;;2.50;0.77;;;5.10;99.90;;;;;;5404911;26;20015;-48
2024/04/16 01:55:13;;;;;;;6.10;1.30;;;5.10;99.90;;;;;;5411898;26;20075;-53
2024/04/16 01:57:39;;;;;;;3.30;1.00;;;5.10;99.90;;;;;;5405451;26;20341;-51
2024/04/16 02:00:06;;;;;;;2.85;0.68;;;5.10;99.90;;;;;;5406750;26;20490;-52
2024/04/16 02:02:35;;;;;;;5.35;0.98;;;5.10;99.90;;;;;;5410970;26;20010;-50
2024/04/16 02:05:00;;;;;;;6.07;1.45;;;5.10;99.90;;;;;;5409151;26;20010;-52
2024/04/16 02:07:26;;;;;;;5.40;1.00;;;5.10;99.90;;;;;;5407325;26;19999;-49
2024/04/16 02:09:52;;;;;;;3.67;1.35;;;5.00;99.90;;;;;;5413092;26;20007;-49
2024/04/16 02:12:18;;;;;;;1.75;0.60;;;5.00;99.90;;;;;;5415138;26;20323;-50
2024/04/16 02:14:44;;;;;;;3.92;0.80;;;5.00;99.90;;;;;;5409579;26;20043;-52
2024/04/16 02:17:09;;;;;;;9.07;1.30;;;4.90;99.90;;;;;;5405622;26;20007;-53
2024/04/16 02:19:35;;;;;;;8.13;0.95;;;4.90;99.90;;;;;;5409705;26;19996;-50
2024/04/16 02:22:00;;;;;;;3.65;1.20;;;4.90;99.90;;;;;;5407715;26;20006;-49
2024/04/16 02:24:26;;;;;;;4.93;0.90;;;4.90;99.90;;;;;;5412875;26;19999;-49
2024/04/16 02:26:52;;;;;;;7.78;0.88;;;4.90;99.90;;;;;;5408768;26;19999;-51
2024/04/16 02:29:17;;;;;;;10.02;1.00;;;4.80;99.90;;;;;;5408550;26;20000;-48
2024/04/16 02:31:43;;;;;;;1.92;0.98;;;4.80;99.90;;;;;;5412816;26;19999;-48
2024/04/16 02:34:08;;;;;;;5.38;0.80;;;4.80;99.90;;;;;;5407819;26;20032;-48
2024/04/16 02:36:36;;;;;;;2.60;1.13;;;4.80;99.90;;;;;;5410187;26;19995;-48
2024/04/16 02:39:01;;;;;;;4.28;0.75;;;4.80;99.90;;;;;;5407406;26;20374;-48
2024/04/16 02:41:27;;;;;;;7.53;0.85;;;4.70;99.90;;;;;;5408760;26;20019;-50
2024/04/16 02:43:52;;;;;;;2.10;1.15;;;4.70;99.90;;;;;;5409390;26;20022;-48
2024/04/16 02:46:18;;;;;;;7.88;0.95;;;4.70;99.90;;;;;;5412564;26;20014;-48
2024/04/16 02:48:44;;;;;;;3.53;0.75;;;4.70;99.90;;;;;;5404132;26;20009;-48
2024/04/16 02:51:13;;;;;;;2.45;0.95;;;4.70;99.90;;;;;;5401539;26;20012;-49
2024/04/16 02:53:39;;;;;;;3.83;1.00;;;4.70;99.90;;;;;;5404201;26;20011;-50
2024/04/16 02:56:05;;;;;;;1.55;0.40;;;4.60;99.90;;;;;;5418861;21;20023;-46
2024/04/16 02:58:31;;;;;;;2.13;0.85;;;4.60;99.90;;;;;;5378335;26;20004;-48
2024/04/16 03:00:57;;;;;;;5.72;0.85;;;4.50;99.90;;;;;;5380134;26;20338;-47
2024/04/16 03:03:22;;;;;;;2.70;1.50;;;4.40;99.90;;;;;;5380174;26;20469;-48
2024/04/16 03:05:57;;;;;;;2.13;0.63;;;4.30;99.90;;;;;;5379510;26;20015;-49
2024/04/16 03:08:22;;;;;;;1.33;0.70;;;4.30;99.90;;;;;;5344417;26;20439;-50
2024/04/16 03:10:48;;;;;;;2.40;0.80;;;4.20;99.90;;;;;;5344515;26;20012;-51
2024/04/16 03:13:14;;;;;;;1.73;0.85;;;4.10;99.90;;;;;;5344665;26;20069;-48
2024/04/16 03:15:40;;;;;;;2.13;0.90;;;4.00;99.90;;;;;;5344803;26;19997;-46
2024/04/16 03:18:05;;;;;;;3.45;0.75;;;4.00;99.90;;;;;;5344428;26;20017;-48
2024/04/16 03:20:31;;;;;;;3.00;1.00;;;3.90;99.90;;;;;;5344766;26;20079;-49
2024/04/16 03:22:56;;;;;;;2.33;0.90;;;4.00;99.90;;;;;;5344543;26;20016;-48
2024/04/16 03:25:23;;;;;;;5.07;0.70;;;4.00;99.90;;;;;;5344772;26;19997;-47
2024/04/16 03:27:50;;;;;;;7.57;2.50;;;4.10;99.90;;;;;;5344503;26;20012;-52
2024/04/16 03:30:15;;;;;;;1.00;0.60;;;4.10;99.90;;;;;;5344338;26;20009;-50
2024/04/16 03:32:41;;;;;;;1.85;0.77;;;4.20;99.90;;;;;;5344275;26;20451;-46
2024/04/16 03:35:08;;;;;;;4.30;0.82;;;4.30;99.90;;;;;;5347193;26;20443;-49
2024/04/16 03:37:34;;;;;;;2.42;1.52;;;4.40;99.90;;;;;;5347593;26;20011;-48
2024/04/16 03:40:00;;;;;;;4.68;0.63;;;4.50;99.90;;;;;;5348207;26;19997;-51
2024/04/16 03:42:26;;;;;;;2.45;0.73;;;4.50;99.90;;;;;;5347661;26;20015;-50
2024/04/16 03:44:53;;;;;;;7.68;0.98;;;4.50;99.90;;;;;;5347584;26;20004;-50
2024/04/16 03:47:19;;;;;;;7.65;1.02;;;4.60;99.90;;;;;;5347369;26;20008;-49
2024/04/16 03:49:45;;;;;;;4.47;0.70;;;4.60;99.90;;;;;;5347193;26;20012;-52
2024/04/16 03:52:11;;;;;;;4.28;0.90;;;4.60;99.90;;;;;;5347451;26;20001;-48
2024/04/16 03:54:36;;;;;;;5.00;1.65;;;4.60;99.90;;;;;;5347558;26;20012;-48
2024/04/16 03:57:02;;;;;;;2.20;0.65;;;4.60;99.90;;;;;;5347475;26;20032;-49
2024/04/16 04:02:19;;;;;;;7.40;1.75;;;4.60;99.90;;;;;;5347717;26;20051;-48
2024/04/16 04:04:45;;;;;;;7.35;0.85;;;4.60;99.90;;;;;;5347792;26;19997;-48
2024/04/16 04:07:11;;;;;;;5.30;0.90;;;4.60;99.90;;;;;;5347734;26;20338;-49
2024/04/16 04:09:36;;;;;;;3.42;0.70;;;4.70;99.90;;;;;;5347691;26;20394;-46
2024/04/16 04:12:02;;;;;;;6.65;1.45;;;4.70;99.90;;;;;;5347919;26;20009;-48
2024/04/16 04:14:28;;;;;;;13.68;1.60;;;4.70;99.90;;;;;;5347414;26;20389;-49
2024/04/16 04:16:53;;;;;;;4.72;0.82;;;4.70;99.90;;;;;;5347025;26;20019;-48
2024/04/16 04:19:19;;;;;;;5.75;1.23;;;4.70;99.90;;;;;;5347278;26;20005;-49
2024/04/16 04:21:44;;;;;;;5.75;1.35;;;4.70;99.90;;;;;;5347541;26;20005;-50
2024/04/16 04:24:15;;;;;;;4.88;0.90;;;4.80;99.90;;;;;;5347421;26;20037;-48
2024/04/16 04:26:40;;;;;;;9.43;1.48;;;4.80;99.90;;;;;;5347201;26;20001;-51
2024/04/16 04:29:06;;;;;;;5.30;2.10;;;4.80;99.90;;;;;;5347471;26;20001;-48
2024/04/16 04:31:31;;;;;;;9.43;1.30;;;4.80;99.90;;;;;;5347243;26;20045;-51
2024/04/16 04:33:58;;;;;;;4.45;1.02;;;4.80;99.90;;;;;;5346954;26;20470;-49
2024/04/16 04:36:23;;;;;;;4.15;1.27;;;4.80;99.90;;;;;;5347212;26;20004;-50
2024/04/16 04:38:49;;;;;;;5.13;1.42;;;4.80;99.90;;;;;;5347248;26;20431;-48
2024/04/16 04:41:15;;;;;;;11.02;2.28;;;4.80;99.90;;;;;;5347418;26;20013;-47
2024/04/16 04:43:40;;;;;;;5.65;1.48;;;4.90;99.90;;;;;;5347596;26;20004;-48
2024/04/16 04:46:06;;;;;;;8.05;1.35;;;4.80;99.90;;;;;;5346890;26;20343;-51
2024/04/16 04:48:31;;;;;;;7.40;1.77;;;4.90;99.90;;;;;;5347269;26;20004;-50
2024/04/16 04:50:57;;;;;;;12.63;2.05;;;4.90;99.90;;;;;;5346643;26;20012;-51
2024/04/16 04:53:22;;;;;;;4.40;1.45;;;5.00;99.90;;;;;;5346679;26;20001;-48
2024/04/16 04:55:48;;;;;;;4.18;1.10;;;5.00;99.90;;;;;;5346447;26;20004;-50
2024/04/16 04:58:14;;;;;;;8.57;1.20;;;5.10;99.90;;;;;;5346672;26;20001;-50
2024/04/16 05:00:39;;;;;;;5.05;1.83;;;5.10;99.90;;;;;;5346836;26;20005;-50
2024/04/16 05:03:05;;;;;;;2.35;0.90;;;5.20;99.90;;;;;;5346639;26;20004;-51
2024/04/16 05:05:33;;;;;;;1.83;1.05;;;5.20;99.90;;;;;;5345831;26;20016;-51
2024/04/16 05:07:59;;;;;;;2.22;1.10;;;5.30;99.90;;;;;;5345696;26;20001;-51
2024/04/16 05:10:24;;;;;;;3.72;1.20;;;5.30;99.90;;;;;;5346217;26;20012;-50
2024/04/16 05:12:51;;;;;;;9.75;1.23;;;5.30;99.90;;;;;;5346202;26;20001;-49
2024/04/16 05:15:17;;;;;;;5.05;0.75;;;5.30;99.90;;;;;;5346168;26;20005;-50
2024/04/16 05:17:42;;;;;;;5.53;0.80;;;5.30;99.90;;;;;;5346217;26;20075;-50
2024/04/16 05:20:08;;;;;;;3.88;0.63;;;5.30;99.90;;;;;;5346340;26;20463;-50
2024/04/16 05:22:34;;;;;;;2.15;0.65;;;5.30;99.90;;;;;;5344392;26;20079;-48
2024/04/16 05:25:00;;;;;;;4.53;0.70;;;5.30;99.90;;;;;;5346171;26;20004;-47
2024/04/16 05:27:26;;;;;;;3.88;0.45;;;5.30;99.90;;;;;;5345899;26;20019;-48
2024/04/16 05:29:51;;;;;;;1.30;0.45;;;5.40;99.90;;;;;;5346074;26;20005;-49
2024/04/16 05:32:17;;;;;;;1.58;0.50;;;5.40;99.90;;;;;;5346250;26;20001;-53
2024/04/16 05:34:44;;;;;;;5.40;0.90;;;5.30;99.90;;;;;;5346231;26;20446;-50
2024/04/16 05:37:10;;;;;;;1.13;0.57;;;5.30;99.90;;;;;;5345837;26;20079;-50
2024/04/16 05:39:36;;;;;;;1.42;0.50;;;5.40;99.90;;;;;;5345780;26;20001;-49
2024/04/16 05:42:02;;;;;;;4.25;0.60;;;5.40;99.90;;;;;;5345875;26;20469;-50
2024/04/16 05:44:28;;;;;;;2.15;0.40;;;5.50;99.90;;;;;;5345739;26;20019;-50
2024/04/16 05:46:54;;;;;;;1.20;0.55;;;5.50;99.90;;;;;;5345656;26;20001;-50
2024/04/16 05:49:20;;;;;;;3.85;0.55;;;5.50;99.90;;;;;;5345764;26;20005;-50
2024/04/16 05:51:46;;;;;;;0.90;0.30;;;5.60;99.90;;;;;;5344143;26;20463;-50
2024/04/16 05:54:11;;;;;;;1.65;0.60;;;5.70;99.90;;;;;;5345530;26;20001;-49
2024/04/16 05:56:37;;;;;;;0.30;0.30;;;5.70;99.90;;;;;;5344651;26;20462;-50
2024/04/16 05:59:03;;;;;;;4.75;0.70;;;5.70;99.90;;;;;;5345718;26;20017;-49
2024/04/16 06:01:29;;;;;;;2.47;0.50;;;5.70;99.90;;;;;;5344329;26;20009;-50
2024/04/16 06:03:54;;;;;;;1.02;0.30;;;5.70;99.90;;;;;;5345110;26;20458;-49
2024/04/16 06:06:20;;;;;;;1.83;0.40;;;5.80;99.90;;;;;;5345611;26;20001;-50
2024/04/16 06:08:45;;;;;;;0.60;0.20;;;5.90;99.90;;;;;;5345513;26;20001;-48
2024/04/16 06:11:11;;;;;;;5.55;0.40;;;6.00;99.90;;;;;;5345527;26;20005;-50
2024/04/16 06:13:37;;;;;;;1.58;0.50;;;6.10;99.90;;;;;;5345128;26;20009;-49
2024/04/16 06:16:03;;;;;;;1.85;0.40;;;6.20;99.90;;;;;;5345181;26;20012;-48
2024/04/16 06:18:28;;;;;;;3.65;0.75;;;6.30;99.90;;;;;;5345520;26;20001;-50
2024/04/16 06:20:54;;;;;;;2.92;0.40;;;6.40;99.90;;;;;;5345226;26;20005;-50
2024/04/16 06:23:22;;;;;;;2.88;0.68;;;6.40;99.90;;;;;;5345201;26;20011;-52
2024/04/16 06:25:48;;;;;;;3.83;0.88;;;6.40;99.90;;;;;;5345212;26;20447;-49
2024/04/16 06:28:13;;;;;;;2.00;0.45;;;6.30;99.90;;;;;;5345120;26;20051;-50
2024/04/16 06:30:39;;;;;;;1.13;0.80;;;6.30;99.90;;;;;;5345092;26;20001;-50
2024/04/16 06:33:04;;;;;;;2.22;0.50;;;6.30;99.90;;;;;;5345044;26;20004;-47
2024/04/16 06:35:30;;;;;;;1.23;0.35;;;6.20;99.90;;;;;;5345272;26;20012;-50
2024/04/16 06:37:56;;;;;;;4.95;1.33;;;6.20;99.90;;;;;;5344497;26;20009;-50
2024/04/16 06:40:21;;;;;;;1.67;1.00;;;6.20;99.90;;;;;;5345031;26;20012;-49
2024/04/16 06:42:49;;;;;;;4.47;0.60;;;6.10;99.90;;;;;;5344951;26;20016;-49
2024/04/16 06:45:15;;;;;;;2.05;0.70;;;6.10;99.90;;;;;;5345019;26;20008;-50
2024/04/16 06:47:41;;;;;;;1.85;0.40;;;6.10;99.90;;;;;;5344794;26;20504;-50
2024/04/16 06:50:07;;;;;;;1.33;0.40;;;6.10;99.90;;;;;;5344933;26;20016;-50
2024/04/16 06:52:32;;;;;;;0.98;0.55;;;6.10;99.90;;;;;;5344797;26;20009;-51
2024/04/16 06:54:58;;;;;;;1.75;0.70;;;6.00;99.90;;;;;;5344700;26;20016;-47
2024/04/16 06:57:25;;;;;;;3.15;0.50;;;6.00;99.90;;;;;;5343877;26;20012;-49
2024/04/16 06:59:51;;;;;;;2.67;0.55;;;5.90;99.90;;;;;;5344347;26;20020;-51
2024/04/16 07:02:17;;;;;;;0.70;0.45;;;5.90;99.90;;;;;;5344549;26;20001;-50
2024/04/16 07:04:42;;;;;;;1.33;0.45;;;5.90;99.90;;;;;;5344636;26;20001;-51
2024/04/16 07:07:08;;;;;;;2.03;0.60;;;5.80;99.90;;;;;;5344540;26;20343;-50
2024/04/16 07:09:33;;;;;;;2.25;0.90;;;5.80;99.90;;;;;;5344966;26;20001;-49
2024/04/16 07:11:59;;;;;;;3.72;0.90;;;5.70;99.90;;;;;;5347343;26;20005;-51
2024/04/16 07:14:24;;;;;;;3.17;0.80;;;5.70;99.90;;;;;;5346895;26;20463;-49
2024/04/16 07:16:50;;;;;;;4.70;0.88;;;5.70;99.90;;;;;;5346874;26;20413;-49
2024/04/16 07:19:15;;;;;;;1.90;0.88;;;5.70;99.90;;;;;;5348001;26;20488;-51
2024/04/16 07:21:41;;;;;;;3.85;0.82;;;5.60;99.90;;;;;;5347566;26;20455;-50
2024/04/16 07:24:07;;;;;;;2.05;0.75;;;5.50;99.90;;;;;;5347764;26;20016;-50
2024/04/16 07:26:32;;;;;;;6.68;2.53;;;5.50;99.90;;;;;;5347455;26;20012;-48
2024/04/16 07:28:58;;;;;;;2.80;0.93;;;5.40;99.90;;;;;;5346667;26;19997;-50
2024/04/16 07:31:23;;;;;;;2.17;0.70;;;5.40;99.90;;;;;;5346884;26;20032;-50
2024/04/16 07:33:49;;;;;;;2.47;0.70;;;5.40;99.90;;;;;;5347336;26;20013;-48
2024/04/16 07:36:14;;;;;;;4.07;1.23;;;5.50;99.90;;;;;;5347591;26;20013;-50
2024/04/16 07:38:40;;;;;;;1.48;0.85;;;5.50;99.90;;;;;;5347373;26;20016;-50
2024/04/16 07:41:06;;;;;;;2.67;0.75;;;5.40;99.90;;;;;;5347474;26;20005;-50
2024/04/16 07:43:32;;;;;;;4.03;0.98;;;5.40;99.90;;;;;;5347292;26;20001;-51
2024/04/16 07:45:57;;;;;;;1.92;0.80;;;5.30;99.90;;;;;;5347525;26;20056;-50
2024/04/16 07:48:23;;;;;;;9.90;1.08;;;5.40;99.90;;;;;;5346988;26;20016;-50
2024/04/16 07:50:48;;;;;;;3.88;0.80;;;5.30;99.90;;;;;;5346818;26;20001;-50
2024/04/16 07:53:14;;;;;;;2.58;0.80;;;5.40;99.90;;;;;;5347252;26;20005;-50
2024/04/16 07:55:40;;;;;;;6.07;0.45;;;5.40;99.90;;;;;;5347269;26;20012;-49
2024/04/16 07:58:06;;;;;;;4.85;0.98;;;5.40;99.90;;;;;;5347273;26;20418;-49
2024/04/16 08:00:32;;;;;;;2.72;0.70;;;5.40;99.90;;;;;;5347344;26;20007;-51
2024/04/16 08:02:57;;;;;;;2.03;0.57;;;5.40;99.90;;;;;;5347349;26;20012;-50
2024/04/16 08:05:23;;;;;;;9.27;3.58;;;5.40;99.90;;;;;;5347051;26;20016;-50
2024/04/16 08:07:49;;;;;;;5.43;0.70;;;5.30;99.90;;;;;;5347142;26;20004;-48
2024/04/16 08:10:14;;;;;;;1.30;0.68;;;5.40;99.90;;;;;;5347182;26;20025;-49
2024/04/16 08:12:40;;;;;;;2.25;0.60;;;5.40;99.90;;;;;;5346922;26;20055;-51
2024/04/16 08:15:06;;;;;;;1.00;0.98;;;5.40;99.90;;;;;;5346429;26;20016;-51
2024/04/16 08:17:34;;;;;;;1.65;0.65;;;5.40;99.90;;;;;;5346997;26;20012;-51
2024/04/16 08:20:00;;;;;;;2.90;0.50;;;5.40;99.90;;;;;;5346692;26;20019;-50
2024/04/16 08:22:26;;;;;;;1.77;0.50;;;5.40;99.90;;;;;;5346765;26;20708;-51
2024/04/16 08:24:52;;;;;;;0.82;0.40;;;5.40;99.90;;;;;;5347198;26;20005;-49
2024/04/16 08:27:24;;;;;;;1.80;0.47;;;5.40;99.90;;;;;;5346708;26;20005;-50
2024/04/16 08:29:51;;;;;;;1.15;0.50;;;5.50;99.90;;;;;;5346768;26;20016;-49
2024/04/16 08:32:17;;;;;;;1.13;0.50;;;5.50;99.90;;;;;;5346639;26;20004;-50
2024/04/16 08:34:43;;;;;;;1.02;0.52;;;5.60;99.90;;;;;;5346981;26;20027;-50
2024/04/16 08:37:08;;;;;;;4.28;1.00;;;5.70;99.90;;;;;;5346646;26;20001;-48
2024/04/16 08:39:34;;;;;;;10.02;1.08;;;5.70;99.90;;;;;;5346789;26;20443;-53
2024/04/16 08:42:01;;;;;;;1.63;0.95;;;5.70;99.90;;;;;;5346723;26;20001;-50
2024/04/16 08:44:27;;;;;;;1.92;1.08;;;5.80;99.90;;;;;;5346592;26;20075;-48
2024/04/16 08:46:56;;;;;;;1.92;1.02;;;5.90;99.90;;;;;;5346318;26;20005;-50
2024/04/16 08:49:23;;;;;;;5.85;1.48;;;6.00;99.90;;;;;;5346743;26;20005;-50
2024/04/16 08:51:51;;;;;;;3.53;1.38;;;6.00;99.90;;;;;;5346552;26;20439;-50
2024/04/16 08:54:19;;;;;;;3.13;1.02;;;6.10;99.90;;;;;;5346489;26;20352;-54
2024/04/16 08:56:46;;;;;;;2.40;1.63;;;6.10;99.90;;;;;;5345951;26;20051;-50
2024/04/16 08:59:12;;;;;;;3.22;1.92;;;6.20;99.90;;;;;;5346434;26;20015;-51
2024/04/16 09:01:39;;;;;;;4.25;2.10;;;6.20;99.90;;;;;;5346617;26;20005;-50
2024/04/16 09:04:06;;;;;;;5.70;2.75;;;6.40;99.90;;;;;;5346382;26;20475;-50
2024/04/16 09:06:32;;;;;;;5.97;1.98;;;6.50;99.90;;;;;;5346288;26;20012;-50
2024/04/16 09:09:01;;;;;;;5.60;2.53;;;6.60;99.90;;;;;;5374878;21;20000;-54
2024/04/16 09:11:27;;;;;;;4.18;3.08;;;6.60;99.90;;;;;;5383366;26;20001;-49
2024/04/16 09:13:55;;;;;;;4.35;2.10;;;6.60;99.90;;;;;;5378771;26;20043;-48
2024/04/16 09:16:21;;;;;;;7.45;2.38;;;6.70;99.90;;;;;;5382464;26;20414;-49
2024/04/16 09:18:46;;;;;;;4.78;2.22;;;6.80;99.90;;;;;;5373527;26;20023;-52
2024/04/16 09:21:12;;;;;;;6.05;2.03;;;6.90;99.90;;;;;;5378362;26;20028;-48
2024/04/16 09:23:38;;;;;;;4.18;2.25;;;7.00;99.90;;;;;;5365591;26;20014;-49
2024/04/16 09:26:12;;;;;;;5.07;2.50;;;7.10;99.90;;;;;;5369023;26;20079;-48
2024/04/16 09:28:38;;;;;;;5.43;2.17;;;7.10;99.90;;;;;;5376459;26;20015;-52
2024/04/16 09:31:03;;;;;;;7.00;1.80;;;7.20;99.90;;;;;;5377383;26;20000;-48
2024/04/16 09:33:31;;;;;;;3.92;1.60;;;7.20;99.90;;;;;;5381682;26;19995;-49
2024/04/16 09:35:56;;;;;;;3.90;1.73;;;7.20;99.90;;;;;;5372570;26;20004;-47
2024/04/16 09:38:22;;;;;;;8.90;2.30;;;7.20;99.90;;;;;;5364702;26;20094;-48
2024/04/16 09:40:49;;;;;;;4.88;1.90;;;7.30;99.90;;;;;;5391452;26;20008;-50
2024/04/16 09:43:17;;;;;;;3.47;1.65;;;7.30;99.90;;;;;;5377130;26;20325;-52
2024/04/16 09:45:44;;;;;;;11.52;1.60;;;7.30;99.90;;;;;;5373956;26;20067;-48
2024/04/16 09:48:10;;;;;;;5.95;1.75;;;7.40;99.90;;;;;;5372843;26;20011;-48
2024/04/16 09:50:38;;;;;;;6.28;1.90;;;7.50;99.90;;;;;;5373470;26;20004;-48
2024/04/16 09:53:05;;;;;;;8.10;1.75;;;7.50;99.90;;;;;;5381049;26;20404;-51
2024/04/16 09:55:33;;;;;;;2.22;1.70;;;7.50;99.90;;;;;;5378253;26;20000;-48
2024/04/16 09:58:00;;;;;;;9.18;2.17;;;7.70;99.90;;;;;;5363633;26;19997;-49
2024/04/16 10:00:26;;;;;;;7.05;1.65;;;7.70;99.90;;;;;;5379486;26;20000;-48
2024/04/16 10:02:56;;;;;;;5.93;1.58;;;7.80;99.90;;;;;;5366268;26;19993;-49
2024/04/16 10:05:21;;;;;;;5.00;1.63;;;7.80;99.90;;;;;;5371536;26;20000;-48
2024/04/16 10:07:48;;;;;;;4.43;1.40;;;7.70;99.90;;;;;;5369356;26;20011;-49
2024/04/16 10:10:14;;;;;;;6.18;1.33;;;7.70;99.90;;;;;;5370687;26;20011;-48
2024/04/16 10:12:41;;;;;;;8.48;1.77;;;7.70;99.90;;;;;;5360031;26;20015;-50
2024/04/16 10:15:08;;;;;;;9.95;1.58;;;7.80;99.90;;;;;;5370966;26;20076;-51
2024/04/16 10:17:52;;;;;;;4.97;1.98;;;7.80;99.90;;;;;;5374313;26;20443;-48
2024/04/16 10:20:20;;;;;;;;;;;7.90;99.90;;;;;;5368714;26;20073;-52
2024/04/16 10:22:57;;;;;;;1.65;1.00;;;8.00;99.90;;;;;;5331615;26;19926;-49
2024/04/16 10:25:33;;;;;;;6.22;1.58;;;8.00;99.90;;;;;;5322739;26;20106;-54
2024/04/16 10:28:01;;;;;;;8.20;1.70;;;8.00;99.90;;;;;;5327818;26;19997;-48
2024/04/16 10:30:31;;;;;;;4.10;1.30;;;8.10;99.90;;;;;;5337618;26;20001;-49
2024/04/16 10:32:58;;;;;;;4.22;1.25;;;8.10;99.90;;;;;;5339304;26;20012;-52
2024/04/16 10:35:23;;;;;;;7.72;1.55;;;8.20;99.90;;;;;;5335177;26;20032;-49
2024/04/16 10:37:50;;;;;;;3.92;1.23;;;8.20;99.90;;;;;;5342297;26;19997;-52
2024/04/16 10:40:23;;;;;;;9.10;1.33;;;8.30;99.90;;;;;;5335183;26;20078;-49
2024/04/16 10:42:51;;;;;;;;;;;8.30;99.90;;;;;;5339714;26;20009;-48
2024/04/16 10:45:17;;;;;;;3.67;1.38;;;8.40;99.90;;;;;;5343491;26;19926;-49
2024/04/16 10:47:43;;;;;;;7.53;2.65;;;8.40;99.90;;;;;;5348455;26;20001;-49
2024/04/16 10:50:09;;;;;;;6.47;2.17;;;8.40;99.90;;;;;;5345285;26;20011;-48
2024/04/16 10:52:34;;;;;;;9.25;1.15;;;8.40;99.90;;;;;;5341242;26;20016;-49
2024/04/16 10:55:00;;;;;;;6.55;1.83;;;8.50;99.90;;;;;;5343155;26;20005;-51
2024/04/16 10:57:25;;;;;;;5.30;1.88;;;8.60;99.90;;;;;;5334517;26;20001;-54
2024/04/16 10:59:51;;;;;;;6.68;1.38;;;8.70;99.90;;;;;;5339678;26;20012;-49
2024/04/16 11:02:17;;;;;;;4.78;1.40;;;8.70;99.90;;;;;;5363323;26;20008;-49
2024/04/16 11:04:43;;;;;;;4.15;1.20;;;8.70;99.90;;;;;;5333365;26;20094;-49
2024/04/16 11:07:09;;;;;;;11.52;1.55;;;8.70;99.90;;;;;;5340135;26;20001;-50
2024/04/16 11:09:34;;;;;;;6.38;1.73;;;8.60;99.90;;;;;;5342367;26;20010;-50
2024/04/16 11:12:00;;;;;;;4.80;2.15;;;8.60;99.90;;;;;;5341710;26;20450;-54
2024/04/16 11:14:26;;;;;;;3.17;1.13;;;8.50;99.90;;;;;;5336018;26;20051;-52
2024/04/16 11:16:52;;;;;;;6.00;1.98;;;8.50;99.90;;;;;;5332390;26;20001;-48
2024/04/16 11:19:19;;;;;;;4.03;1.00;;;8.40;99.90;;;;;;5333107;26;20009;-47
2024/04/16 11:21:46;;;;;;;4.38;1.35;;;8.30;99.90;;;;;;5336630;26;20012;-52
2024/04/16 11:24:13;;;;;;;1.88;1.00;;;8.30;99.90;;;;;;5339174;26;20377;-48
2024/04/16 11:26:39;;;;;;;6.00;1.27;;;8.10;99.90;;;;;;5345630;26;20008;-54
2024/04/16 11:29:05;;;;;;;1.95;0.77;;;7.90;99.90;;;;;;5341514;26;20461;-51
2024/04/16 11:31:30;;;;;;;5.20;0.93;;;7.80;99.90;;;;;;5343847;26;19997;-48
2024/04/16 11:33:56;;;;;;;1.70;0.50;;;7.70;99.90;;;;;;5345407;26;20008;-48
2024/04/16 11:36:22;;;;;;;0.55;0.50;;;7.40;99.90;;;;;;5351868;26;20004;-48
2024/04/16 11:38:48;;;;;;;0.65;0.38;;;7.30;99.90;;;;;;5334252;26;20023;-50
2024/04/16 11:41:17;;;;;;;1.23;0.40;;;7.20;99.90;;;;;;5340992;26;20001;-51
2024/04/16 11:43:44;;;;;;;1.80;0.57;;;7.30;99.90;;;;;;5342777;26;20001;-48
2024/04/16 11:46:12;;;;;;;1.65;0.57;;;7.50;99.90;;;;;;5350723;26;19996;-49
2024/04/16 11:48:38;;;;;;;2.50;0.60;;;7.60;99.90;;;;;;5347549;26;20032;-52
2024/04/16 11:51:06;;;;;;;7.50;0.93;;;7.80;99.90;;;;;;5343735;26;20377;-49
2024/04/16 11:53:31;;;;;;;5.25;0.68;;;8.20;99.90;;;;;;5343274;26;20075;-48
2024/04/16 11:55:57;;;;;;;1.13;0.43;;;8.50;99.90;;;;;;5343152;26;20001;-49
2024/04/16 11:58:22;;;;;;;6.43;0.65;;;8.80;99.90;;;;;;5343181;26;20047;-53
2024/04/16 12:00:48;;;;;;;5.22;1.05;;;9.20;99.90;;;;;;5344382;26;20012;-53
2024/04/16 12:03:14;;;;;;;8.25;1.33;;;9.20;99.90;;;;;;5342748;26;20056;-51
2024/04/16 12:05:39;;;;;;;1.70;0.70;;;9.20;99.90;;;;;;5339252;26;19996;-49
2024/04/16 12:08:05;;;;;;;3.28;0.90;;;9.10;99.90;;;;;;5342479;26;20012;-48
2024/04/16 12:10:32;;;;;;;0.30;0.30;;;9.20;99.90;;;;;;5343684;26;20000;-49
2024/04/16 12:12:58;;;;;;;1.20;0.43;;;9.30;99.90;;;;;;5341876;26;20001;-48
2024/04/16 12:15:24;;;;;;;0.30;0.30;;;9.40;99.90;;;;;;5339963;26;20008;-48
2024/04/16 12:17:49;;;;;;;6.05;1.10;;;9.30;99.90;;;;;;5338782;26;20319;-49
2024/04/16 12:20:15;;;;;;;1.13;0.40;;;9.50;99.90;;;;;;5345965;26;20328;-48
2024/04/16 12:22:41;;;;;;;4.57;0.47;;;9.60;99.90;;;;;;5343344;26;20451;-50
2024/04/16 12:25:06;;;;;;;0.82;0.35;;;9.80;99.90;;;;;;5346807;26;20002;-50
2024/04/16 12:27:32;;;;;;;0.55;0.35;;;9.90;99.90;;;;;;5327798;26;20005;-53
2024/04/16 12:29:57;;;;;;;4.68;0.77;;;9.90;99.90;;;;;;5340693;26;20062;-50
2024/04/16 12:32:24;;;;;;;1.83;0.60;;;9.90;99.90;;;;;;5339994;26;20004;-52
2024/04/16 12:34:49;;;;;;;2.95;1.17;;;9.90;99.90;;;;;;5336825;26;19997;-51
2024/04/16 12:37:15;;;;;;;1.77;0.60;;;9.60;99.90;;;;;;5341870;26;20316;-52
2024/04/16 12:39:41;;;;;;;6.32;0.55;;;9.60;99.90;;;;;;5340369;26;19997;-49
2024/04/16 12:42:06;;;;;;;3.42;0.82;;;9.80;99.90;;;;;;5344376;26;20089;-49
2024/04/16 12:44:32;;;;;;;4.70;0.65;;;10.00;99.90;;;;;;5344169;26;20008;-49
2024/04/16 12:46:57;;;;;;;3.88;0.60;;;10.10;99.90;;;;;;5333918;26;20028;-52
2024/04/16 12:49:24;;;;;;;2.55;0.70;;;10.30;99.90;;;;;;5336964;26;20072;-51
2024/04/16 12:51:50;;;;;;;4.80;1.05;;;10.20;99.90;;;;;;5343304;26;20048;-51
2024/04/16 12:54:18;;;;;;;1.38;0.73;;;10.30;99.90;;;;;;5344897;26;20342;-51